createdAt,value
2018-04-04T00:00:23.626Z,6.80
2018-04-04T00:02:51.676Z,6.80
2018-04-04T00:05:21.439Z,6.90
2018-04-04T00:07:49.494Z,6.90
2018-04-04T00:10:17.627Z,7.00
2018-04-04T00:12:46.295Z,7.10
2018-04-04T00:15:14.361Z,7.10
2018-04-04T00:17:42.417Z,7.00
2018-04-04T00:20:10.862Z,6.90
2018-04-04T00:22:38.893Z,6.90
2018-04-04T00:25:06.934Z,6.80
2018-04-04T00:27:37.105Z,7.00
2018-04-04T00:30:05.149Z,6.90
2018-04-04T00:32:33.225Z,7.00
2018-04-04T00:35:01.753Z,7.00
2018-04-04T00:37:29.787Z,7.00
2018-04-04T00:39:57.838Z,7.10
2018-04-04T00:42:25.876Z,7.10
2018-04-04T00:44:56.582Z,7.30
2018-04-04T00:47:24.620Z,7.50
2018-04-04T00:49:52.661Z,7.60
2018-04-04T00:52:21.329Z,7.60
2018-04-04T00:54:49.467Z,7.60
2018-04-04T00:57:17.817Z,7.50
2018-04-04T00:59:47.018Z,7.50
2018-04-04T01:02:15.066Z,7.50
2018-04-04T01:04:43.117Z,7.60
2018-04-04T01:07:11.944Z,7.50
2018-04-04T01:09:41.149Z,7.50
2018-04-04T01:12:09.197Z,7.50
2018-04-04T01:14:37.257Z,7.40
2018-04-04T01:17:06.403Z,7.50
2018-04-04T01:19:34.455Z,7.60
2018-04-04T01:22:02.504Z,7.60
2018-04-04T01:24:30.629Z,7.50
2018-04-04T01:26:58.688Z,7.50
2018-04-04T01:29:26.724Z,7.50
2018-04-04T01:31:55.155Z,7.50
2018-04-04T01:34:23.193Z,7.50
2018-04-04T01:36:51.235Z,7.50
2018-04-04T01:39:21.392Z,7.40
2018-04-04T01:41:49.431Z,7.40
2018-04-04T01:44:17.484Z,7.50
2018-04-04T01:46:47.952Z,7.50
2018-04-04T01:49:15.986Z,7.50
2018-04-04T01:51:44.025Z,7.50
2018-04-04T01:54:12.079Z,7.50
2018-04-04T01:56:41.466Z,7.50
2018-04-04T01:59:09.502Z,7.50
2018-04-04T02:01:38.331Z,7.50
2018-04-04T02:04:07.447Z,7.50
2018-04-04T02:06:35.491Z,7.40
2018-04-04T02:09:03.557Z,7.30
2018-04-04T02:11:32.418Z,7.20
2018-04-04T02:14:00.475Z,7.10
2018-04-04T02:16:28.509Z,7.00
2018-04-04T02:18:57.642Z,6.90
2018-04-04T02:21:25.684Z,6.90
2018-04-04T02:23:53.740Z,6.80
2018-04-04T02:26:21.776Z,6.70
2018-04-04T02:28:51.161Z,6.70
2018-04-04T02:31:19.493Z,6.80
2018-04-04T02:33:48.324Z,6.80
2018-04-04T02:36:17.485Z,6.80
2018-04-04T02:38:45.536Z,6.90
2018-04-04T02:41:13.592Z,6.90
2018-04-04T02:43:43.314Z,6.80
2018-04-04T02:46:11.436Z,6.90
2018-04-04T02:48:41.059Z,6.80
2018-04-04T02:51:09.875Z,6.80
2018-04-04T02:53:39.097Z,6.80
2018-04-04T02:56:07.151Z,6.80
2018-04-04T02:58:35.216Z,6.80
2018-04-04T03:01:04.838Z,6.90
2018-04-04T03:03:32.935Z,6.90
2018-04-04T03:06:00.985Z,6.90
2018-04-04T03:08:30.109Z,7.00
2018-04-04T03:10:58.143Z,6.90
2018-04-04T03:13:26.197Z,6.80
2018-04-04T03:15:55.043Z,6.90
2018-04-04T03:18:23.124Z,7.00
2018-04-04T03:20:51.167Z,7.10
2018-04-04T03:23:21.303Z,7.30
2018-04-04T03:25:49.348Z,7.30
2018-04-04T03:28:17.397Z,7.40
2018-04-04T03:30:46.577Z,7.50
2018-04-04T03:33:14.704Z,7.40
2018-04-04T03:35:42.767Z,7.30
2018-04-04T03:38:12.150Z,7.20
2018-04-04T03:40:40.270Z,7.20
2018-04-04T03:43:08.322Z,7.10
2018-04-04T03:45:37.407Z,7.00
2018-04-04T03:48:05.455Z,6.90
2018-04-04T03:50:35.347Z,6.80
2018-04-04T03:53:05.203Z,6.70
2018-04-04T03:55:33.249Z,6.70
2018-04-04T03:58:02.046Z,6.50
2018-04-04T04:00:31.542Z,6.50
2018-04-04T04:03:00.344Z,6.50
2018-04-04T04:05:29.149Z,6.60
2018-04-04T04:07:58.280Z,6.60
2018-04-04T04:10:26.323Z,6.60
2018-04-04T04:12:54.354Z,6.60
2018-04-04T04:15:24.089Z,6.40
2018-04-04T04:17:52.412Z,6.30
2018-04-04T04:20:20.470Z,6.30
2018-04-04T04:22:49.699Z,6.20
2018-04-04T04:25:17.770Z,6.00
2018-04-04T04:27:45.882Z,5.90
2018-04-04T04:30:14.745Z,5.90
2018-04-04T04:32:43.636Z,5.80
2018-04-04T04:35:11.762Z,5.70
2018-04-04T04:37:40.823Z,5.70
2018-04-04T04:40:08.854Z,5.60
2018-04-04T04:42:37.656Z,5.50
2018-04-04T04:45:06.274Z,5.50
2018-04-04T04:47:34.323Z,5.40
2018-04-04T04:50:02.356Z,5.40
2018-04-04T04:52:32.675Z,5.30
2018-04-04T04:55:00.705Z,5.20
2018-04-04T04:57:28.763Z,5.10
2018-04-04T04:59:58.048Z,5.10
2018-04-04T05:02:26.100Z,5.10
2018-04-04T05:04:54.152Z,5.10
2018-04-04T05:07:23.266Z,5.10
2018-04-04T05:09:51.303Z,5.10
2018-04-04T05:12:19.473Z,5.10
2018-04-04T05:14:49.110Z,5.00
2018-04-04T05:17:17.171Z,5.00
2018-04-04T05:19:45.214Z,5.00
2018-04-04T05:22:13.848Z,5.00
2018-04-04T05:24:42.207Z,5.10
2018-04-04T05:27:11.014Z,5.50
2018-04-04T05:29:39.049Z,5.40
2018-04-04T05:32:08.209Z,5.70
2018-04-04T05:34:36.264Z,5.80
2018-04-04T05:37:04.324Z,6.00
2018-04-04T05:39:34.161Z,6.30
2018-04-04T05:42:02.204Z,6.30
2018-04-04T05:44:30.333Z,6.50
2018-04-04T05:46:59.441Z,6.70
2018-04-04T05:49:27.502Z,6.70
2018-04-04T05:51:55.596Z,6.90
2018-04-04T05:54:25.832Z,7.10
2018-04-04T05:56:53.994Z,7.20
2018-04-04T05:59:22.087Z,7.50
2018-04-04T06:01:51.447Z,7.40
2018-04-04T06:04:19.765Z,7.40
2018-04-04T06:06:48.160Z,7.50
2018-04-04T06:09:18.268Z,7.80
2018-04-04T06:11:47.445Z,8.30
2018-04-04T06:14:16.467Z,8.30
2018-04-04T06:16:46.096Z,8.50
2018-04-04T06:19:19.066Z,9.00
2018-04-04T06:21:52.401Z,9.20
2018-04-04T06:24:21.389Z,9.20
2018-04-04T06:26:51.347Z,9.50
2018-04-04T06:29:30.843Z,9.50
2018-04-04T06:32:04.007Z,9.70
2018-04-04T06:34:37.558Z,9.70
2018-04-04T06:37:07.691Z,9.70
2018-04-04T06:39:37.230Z,9.90
2018-04-04T06:42:06.005Z,10.00
2018-04-04T06:44:35.709Z,10.10
2018-04-04T06:47:05.497Z,10.00
2018-04-04T06:49:37.276Z,10.10
2018-04-04T06:52:07.331Z,10.20
2018-04-04T06:54:38.976Z,10.20
2018-04-04T06:57:10.909Z,10.30
2018-04-04T06:59:42.324Z,10.50
2018-04-04T07:02:11.899Z,10.70
2018-04-04T07:04:43.494Z,10.80
2018-04-04T07:07:13.205Z,11.00
2018-04-04T07:09:42.448Z,11.20
2018-04-04T07:12:14.751Z,11.60
2018-04-04T07:14:45.362Z,11.60
2018-04-04T07:17:14.526Z,12.00
2018-04-04T07:19:43.045Z,12.00
2018-04-04T07:22:13.957Z,12.50
2018-04-04T07:24:42.704Z,12.50
2018-04-04T07:27:11.180Z,12.90
2018-04-04T07:29:40.507Z,13.40
2018-04-04T07:32:09.313Z,14.00
2018-04-04T07:34:38.601Z,14.90
2018-04-04T07:37:07.791Z,14.90
2018-04-04T07:39:36.237Z,15.20
2018-04-04T07:42:05.176Z,15.50
2018-04-04T07:44:34.905Z,15.60
2018-04-04T07:47:03.479Z,16.10
2018-04-04T07:49:31.841Z,16.50
2018-04-04T07:52:01.625Z,16.90
2018-04-04T07:54:30.771Z,18.10
2018-04-04T07:57:00.624Z,18.00
2018-04-04T07:59:30.677Z,18.00
2018-04-04T08:01:59.381Z,18.00
2018-04-04T08:04:28.237Z,17.80
2018-04-04T08:06:58.077Z,17.90
2018-04-04T08:09:26.750Z,18.10
2018-04-04T08:11:56.138Z,18.60
2018-04-04T08:14:24.781Z,18.50
2018-04-04T08:16:54.414Z,18.80
2018-04-04T08:19:23.719Z,18.60
2018-04-04T08:21:52.961Z,18.60
2018-04-04T08:24:22.975Z,18.60
2018-04-04T08:26:51.913Z,18.60
2018-04-04T08:29:20.407Z,18.40
2018-04-04T08:31:50.051Z,18.30
2018-04-04T08:34:19.327Z,18.80
2018-04-04T08:36:47.656Z,18.80
2018-04-04T08:39:17.031Z,19.30
2018-04-04T08:41:45.674Z,19.30
2018-04-04T08:44:14.377Z,19.40
2018-04-04T08:46:42.736Z,19.30
2018-04-04T08:49:12.128Z,19.50
2018-04-04T08:51:41.272Z,21.10
2018-04-04T08:54:09.695Z,21.10
2018-04-04T08:56:39.188Z,21.20
2018-04-04T08:59:08.956Z,20.80
2018-04-04T09:01:37.482Z,20.50
2018-04-04T09:04:06.307Z,20.40
2018-04-04T09:06:35.749Z,20.00
2018-04-04T09:09:05.508Z,19.60
2018-04-04T09:11:35.190Z,19.40
2018-04-04T09:14:05.389Z,19.60
2018-04-04T09:16:35.090Z,19.60
2018-04-04T09:19:03.534Z,20.10
2018-04-04T09:21:32.620Z,20.30
2018-04-04T09:24:02.341Z,20.00
2018-04-04T09:26:30.971Z,19.50
2018-04-04T09:28:59.428Z,19.20
2018-04-04T09:31:29.089Z,18.90
2018-04-04T09:33:57.967Z,19.10
2018-04-04T09:36:26.846Z,19.40
2018-04-04T09:38:57.519Z,19.90
2018-04-04T09:41:26.211Z,19.80
2018-04-04T09:43:54.606Z,20.00
2018-04-04T09:46:26.092Z,20.30
2018-04-04T09:48:54.479Z,20.40
2018-04-04T09:51:24.807Z,19.90
2018-04-04T09:53:53.439Z,20.10
2018-04-04T09:56:21.955Z,20.50
2018-04-04T09:58:52.066Z,20.10
2018-04-04T10:01:28.521Z,20.40
2018-04-04T10:03:58.843Z,20.90
2018-04-04T10:06:29.572Z,21.30
2018-04-04T10:08:59.574Z,21.30
2018-04-04T10:11:28.033Z,22.20
2018-04-04T10:13:59.932Z,22.80
2018-04-04T10:16:30.192Z,23.30
2018-04-04T10:18:59.387Z,23.70
2018-04-04T10:21:28.436Z,23.60
2018-04-04T10:23:56.929Z,23.50
2018-04-04T10:26:25.909Z,23.40
2018-04-04T10:28:57.058Z,24.40
2018-04-04T10:31:25.579Z,24.30
2018-04-04T10:33:55.112Z,24.20
2018-04-04T10:36:26.177Z,24.20
2018-04-04T10:38:54.755Z,23.70
2018-04-04T10:41:24.830Z,24.30
2018-04-04T10:43:54.155Z,24.50
2018-04-04T10:46:22.704Z,24.50
2018-04-04T10:48:52.830Z,24.80
2018-04-04T10:51:26.015Z,24.70
2018-04-04T10:53:56.022Z,24.70
2018-04-04T10:56:27.748Z,24.80
2018-04-04T10:58:57.425Z,25.80
2018-04-04T11:01:29.584Z,25.90
2018-04-04T11:04:00.353Z,26.70
2018-04-04T11:06:36.302Z,26.00
2018-04-04T11:09:06.118Z,25.20
2018-04-04T11:11:41.424Z,25.20
2018-04-04T11:14:15.352Z,25.10
2018-04-04T11:16:47.499Z,26.80
2018-04-04T11:19:19.091Z,26.80
2018-04-04T11:21:51.455Z,27.30
2018-04-04T11:24:27.620Z,27.80
2018-04-04T11:26:58.327Z,27.70
2018-04-04T11:29:29.928Z,27.70
2018-04-04T11:32:00.141Z,27.30
2018-04-04T11:34:29.516Z,27.30
2018-04-04T11:36:58.053Z,27.80
2018-04-04T11:39:28.325Z,28.70
2018-04-04T11:41:57.708Z,28.80
2018-04-04T11:44:26.648Z,28.80
2018-04-04T11:46:56.696Z,28.10
2018-04-04T11:49:25.104Z,28.50
2018-04-04T11:51:54.891Z,28.90
2018-04-04T11:54:24.473Z,28.80
2018-04-04T11:56:55.033Z,29.50
2018-04-04T11:59:24.787Z,29.60
2018-04-04T12:01:55.382Z,28.60
2018-04-04T12:04:25.380Z,28.00
2018-04-04T12:06:54.438Z,27.60
2018-04-04T12:09:23.957Z,27.90
2018-04-04T12:11:54.062Z,28.20
2018-04-04T12:14:23.108Z,28.80
2018-04-04T12:16:53.457Z,29.70
2018-04-04T12:19:22.232Z,29.60
2018-04-04T12:21:51.472Z,29.40
2018-04-04T12:24:22.465Z,30.10
2018-04-04T12:26:52.127Z,30.50
2018-04-04T12:29:21.116Z,30.40
2018-04-04T12:31:50.593Z,30.10
2018-04-04T12:34:19.288Z,30.60
2018-04-04T12:36:47.842Z,30.80
2018-04-04T12:39:26.224Z,30.80
2018-04-04T12:42:01.186Z,30.30
2018-04-04T12:44:30.760Z,30.60
2018-04-04T12:46:59.396Z,29.90
2018-04-04T12:49:28.072Z,30.30
2018-04-04T12:51:58.078Z,31.30
2018-04-04T12:54:27.936Z,30.30
2018-04-04T12:56:56.486Z,30.20
2018-04-04T12:59:26.119Z,28.90
2018-04-04T13:01:56.754Z,29.00
2018-04-04T13:04:27.502Z,28.00
2018-04-04T13:06:55.968Z,27.30
2018-04-04T13:09:24.663Z,27.00
2018-04-04T13:11:54.943Z,26.80
2018-04-04T13:14:23.750Z,26.70
2018-04-04T13:16:54.162Z,26.30
2018-04-04T13:19:25.875Z,27.80
2018-04-04T13:21:55.278Z,27.80
2018-04-04T13:24:23.729Z,28.40
2018-04-04T13:26:53.247Z,28.70
2018-04-04T13:29:21.816Z,28.80
2018-04-04T13:31:50.283Z,28.30
2018-04-04T13:34:19.694Z,27.20
2018-04-04T13:36:48.434Z,26.60
2018-04-04T13:39:17.016Z,26.40
2018-04-04T13:41:46.157Z,26.10
2018-04-04T13:44:15.957Z,26.10
2018-04-04T13:46:45.229Z,24.80
2018-04-04T13:49:14.602Z,24.70
2018-04-04T13:51:43.926Z,24.70
2018-04-04T13:54:12.645Z,25.50
2018-04-04T13:56:42.097Z,26.20
2018-04-04T13:59:12.592Z,26.40
2018-04-04T14:01:42.218Z,26.40
2018-04-04T14:04:14.305Z,26.10
2018-04-04T14:06:43.244Z,26.10
2018-04-04T14:09:12.552Z,25.40
2018-04-04T14:11:46.922Z,25.40
2018-04-04T14:14:15.379Z,25.30
2018-04-04T14:16:44.286Z,25.10
2018-04-04T14:19:15.137Z,25.50
2018-04-04T14:21:45.159Z,25.60
2018-04-04T14:24:14.774Z,25.10
2018-04-04T14:26:44.061Z,25.20
2018-04-04T14:29:12.731Z,25.00
2018-04-04T14:31:43.104Z,25.00
2018-04-04T14:34:12.186Z,24.90
2018-04-04T14:36:41.713Z,24.30
2018-04-04T14:39:11.056Z,24.20
2018-04-04T14:41:41.081Z,24.30
2018-04-04T14:44:09.572Z,24.30
2018-04-04T14:46:38.633Z,24.40
2018-04-04T14:49:08.799Z,23.80
2018-04-04T14:51:39.584Z,23.90
2018-04-04T14:54:09.673Z,23.80
2018-04-04T14:56:39.523Z,23.80
2018-04-04T14:59:11.987Z,23.60
2018-04-04T15:01:45.117Z,22.50
2018-04-04T15:04:16.011Z,22.40
2018-04-04T15:06:46.934Z,21.50
2018-04-04T15:09:20.321Z,20.60
2018-04-04T15:11:50.314Z,20.50
2018-04-04T15:14:24.952Z,20.00
2018-04-04T15:16:54.937Z,19.50
2018-04-04T15:19:25.824Z,19.00
2018-04-04T15:22:01.041Z,18.50
2018-04-04T15:24:30.170Z,18.50
2018-04-04T15:26:59.605Z,18.50
2018-04-04T15:29:30.237Z,18.30
2018-04-04T15:31:59.045Z,17.90
2018-04-04T15:34:28.442Z,16.60
2018-04-04T15:36:58.161Z,16.60
2018-04-04T15:39:26.603Z,16.60
2018-04-04T15:41:55.524Z,16.60
2018-04-04T15:44:25.386Z,16.80
2018-04-04T15:46:54.626Z,17.00
2018-04-04T15:49:23.275Z,16.50
2018-04-04T15:51:53.770Z,16.10
2018-04-04T15:54:22.752Z,15.80
2018-04-04T15:56:51.280Z,15.60
2018-04-04T15:59:20.553Z,15.70
2018-04-04T16:01:48.955Z,15.70
2018-04-04T16:04:20.450Z,15.80
2018-04-04T16:06:50.315Z,15.90
2018-04-04T16:09:18.804Z,15.90
2018-04-04T16:11:49.992Z,15.80
2018-04-04T16:14:20.671Z,15.80
2018-04-04T16:16:49.086Z,15.50
2018-04-04T16:19:17.698Z,14.80
2018-04-04T16:21:47.820Z,14.20
2018-04-04T16:24:16.727Z,13.80
2018-04-04T16:26:45.246Z,13.50
2018-04-04T16:29:15.002Z,13.30
2018-04-04T16:31:43.747Z,13.20
2018-04-04T16:34:13.181Z,12.70
2018-04-04T16:36:44.186Z,12.70
2018-04-04T16:39:13.986Z,12.50
2018-04-04T16:41:43.184Z,12.40
2018-04-04T16:44:12.882Z,12.30
2018-04-04T16:46:42.548Z,12.10
2018-04-04T16:49:11.679Z,12.10
2018-04-04T16:51:41.405Z,12.00
2018-04-04T16:54:09.965Z,11.90
2018-04-04T16:56:39.073Z,11.80
2018-04-04T16:59:09.197Z,11.50
2018-04-04T17:01:38.513Z,11.30
2018-04-04T17:04:07.001Z,11.30
2018-04-04T17:06:38.927Z,11.10
2018-04-04T17:09:07.291Z,11.10
2018-04-04T17:11:36.882Z,10.90
2018-04-04T17:14:05.663Z,10.90
2018-04-04T17:16:34.278Z,10.70
2018-04-04T17:19:03.058Z,10.50
2018-04-04T17:21:34.392Z,10.30
2018-04-04T17:24:02.919Z,10.30
2018-04-04T17:26:31.786Z,10.30
2018-04-04T17:29:01.968Z,10.10
2018-04-04T17:31:30.432Z,10.00
2018-04-04T17:33:58.996Z,10.00
2018-04-04T17:36:29.527Z,9.80
2018-04-04T17:38:58.955Z,9.80
2018-04-04T17:41:27.519Z,9.80
2018-04-04T17:43:57.303Z,9.70
2018-04-04T17:46:25.844Z,9.60
2018-04-04T17:48:55.099Z,9.50
2018-04-04T17:51:24.562Z,9.50
2018-04-04T17:53:53.878Z,9.40
2018-04-04T17:56:22.733Z,9.40
2018-04-04T17:58:52.709Z,9.30
2018-04-04T18:01:22.016Z,9.00
2018-04-04T18:03:50.583Z,9.00
2018-04-04T18:06:20.707Z,8.90
2018-04-04T18:08:50.628Z,8.80
2018-04-04T18:11:23.330Z,8.80
2018-04-04T18:13:52.648Z,8.70
2018-04-04T18:16:21.810Z,8.60
2018-04-04T18:18:51.347Z,8.50
2018-04-04T18:21:20.374Z,8.40
2018-04-04T18:23:52.278Z,8.30
2018-04-04T18:26:20.908Z,8.30
2018-04-04T18:28:50.231Z,8.20
2018-04-04T18:31:21.061Z,8.10
2018-04-04T18:33:50.325Z,8.10
2018-04-04T18:36:21.221Z,8.00
2018-04-04T18:38:50.604Z,8.00
2018-04-04T18:41:20.872Z,7.90
2018-04-04T18:43:50.478Z,7.90
2018-04-04T18:46:21.291Z,8.00
2018-04-04T18:48:54.125Z,8.00
2018-04-04T18:51:25.234Z,8.00
2018-04-04T18:53:57.895Z,8.10
2018-04-04T18:56:29.331Z,8.10
2018-04-04T18:59:01.327Z,8.20
2018-04-04T19:01:32.696Z,8.10
2018-04-04T19:04:02.887Z,8.20
2018-04-04T19:06:34.792Z,8.30
2018-04-04T19:09:07.963Z,8.30
2018-04-04T19:11:39.107Z,8.30
2018-04-04T19:14:13.554Z,8.30
2018-04-04T19:16:45.444Z,8.30
2018-04-04T19:19:18.702Z,8.40
2018-04-04T19:21:50.954Z,8.40
2018-04-04T19:24:22.912Z,8.30
2018-04-04T19:26:53.828Z,8.30
2018-04-04T19:29:22.920Z,8.30
2018-04-04T19:31:53.888Z,8.30
2018-04-04T19:34:22.917Z,8.20
2018-04-04T19:36:52.295Z,8.20
2018-04-04T19:39:22.920Z,8.10
2018-04-04T19:41:53.136Z,8.00
2018-04-04T19:44:24.110Z,8.00
2018-04-04T19:46:54.027Z,8.00
2018-04-04T19:49:23.563Z,8.00
2018-04-04T19:51:59.565Z,8.00
2018-04-04T19:54:30.334Z,7.90
2018-04-04T19:57:05.575Z,7.80
2018-04-04T19:59:36.184Z,7.80
2018-04-04T20:02:08.470Z,7.70
2018-04-04T20:04:40.113Z,7.70
2018-04-04T20:07:10.629Z,7.70
2018-04-04T20:09:43.062Z,7.70
2018-04-04T20:12:14.659Z,7.70
2018-04-04T20:14:49.676Z,7.70
2018-04-04T20:17:23.631Z,7.70
2018-04-04T20:19:53.525Z,7.60
2018-04-04T20:22:22.697Z,7.50
2018-04-04T20:24:54.316Z,7.30
2018-04-04T20:27:23.903Z,7.30
2018-04-04T20:29:53.021Z,7.20
2018-04-04T20:32:24.877Z,7.10
2018-04-04T20:34:53.373Z,7.00
2018-04-04T20:37:22.240Z,6.90
2018-04-04T20:39:51.482Z,6.80
2018-04-04T20:42:23.580Z,6.80
2018-04-04T20:44:57.421Z,6.80
2018-04-04T20:47:29.666Z,6.80
2018-04-04T20:50:03.970Z,6.80
2018-04-04T20:52:35.100Z,6.80
2018-04-04T20:55:05.993Z,6.50
2018-04-04T20:57:34.898Z,6.50
2018-04-04T21:00:03.933Z,6.40
2018-04-04T21:02:33.930Z,6.30
2018-04-04T21:05:02.941Z,6.30
2018-04-04T21:07:32.015Z,6.30
2018-04-04T21:10:03.075Z,6.40
2018-04-04T21:12:33.004Z,6.50
2018-04-04T21:15:03.386Z,6.60
2018-04-04T21:17:34.360Z,6.60
2018-04-04T21:20:03.030Z,6.60
2018-04-04T21:22:31.468Z,6.50
2018-04-04T21:25:05.341Z,6.50
2018-04-04T21:27:35.295Z,6.50
2018-04-04T21:30:05.209Z,6.60
2018-04-04T21:32:33.892Z,6.60
2018-04-04T21:35:04.163Z,6.70
2018-04-04T21:37:34.144Z,6.70
2018-04-04T21:40:03.809Z,6.70
2018-04-04T21:42:32.341Z,6.90
2018-04-04T21:45:01.279Z,7.00
2018-04-04T21:47:31.181Z,7.20
2018-04-04T21:50:00.971Z,7.20
2018-04-04T21:52:30.326Z,7.20
2018-04-04T21:54:58.909Z,7.20
2018-04-04T21:57:27.401Z,7.30
2018-04-04T21:59:56.926Z,7.30
2018-04-04T22:02:25.370Z,7.30
2018-04-04T22:04:53.945Z,7.10
2018-04-04T22:07:23.853Z,7.00
2018-04-04T22:09:53.159Z,7.00
2018-04-04T22:12:22.924Z,6.90
2018-04-04T22:14:52.175Z,7.00
2018-04-04T22:17:20.709Z,7.10
2018-04-04T22:19:49.147Z,7.20
2018-04-04T22:22:18.325Z,7.30
2018-04-04T22:24:47.199Z,7.30
2018-04-04T22:27:15.588Z,7.40
2018-04-04T22:29:45.430Z,7.40
2018-04-04T22:32:13.837Z,7.30
2018-04-04T22:34:42.415Z,7.30
2018-04-04T22:37:11.372Z,7.30
2018-04-04T22:39:40.002Z,7.30
2018-04-04T22:42:08.700Z,7.30
2018-04-04T22:44:38.001Z,7.30
2018-04-04T22:47:06.270Z,7.30
2018-04-04T22:49:34.570Z,7.20
2018-04-04T22:52:04.187Z,7.50
2018-04-04T22:54:33.288Z,7.60
2018-04-04T22:57:01.625Z,7.60
2018-04-04T22:59:31.475Z,7.70
2018-04-04T23:02:00.258Z,7.80
2018-04-04T23:04:28.672Z,7.90
2018-04-04T23:06:58.428Z,8.00
2018-04-04T23:09:29.295Z,8.00
2018-04-04T23:11:59.681Z,8.10
2018-04-04T23:14:29.467Z,8.10
2018-04-04T23:16:58.821Z,8.20
2018-04-04T23:19:27.636Z,8.20
2018-04-04T23:21:55.970Z,8.20
2018-04-04T23:24:24.327Z,8.20
2018-04-04T23:26:54.592Z,8.20
2018-04-04T23:29:23.299Z,8.30
2018-04-04T23:31:51.802Z,8.20
2018-04-04T23:34:21.397Z,8.20
2018-04-04T23:36:49.708Z,8.10
2018-04-04T23:39:18.173Z,8.00
2018-04-04T23:41:47.552Z,8.00
2018-04-04T23:44:16.429Z,8.00
2018-04-04T23:46:44.860Z,8.00
2018-04-04T23:49:14.677Z,8.00
2018-04-04T23:51:43.016Z,8.00
2018-04-04T23:54:12.004Z,7.90
2018-04-04T23:56:41.040Z,7.80
2018-04-04T23:59:09.792Z,7.80
